sensor_id;sensor_type;location;lat;lon;timestamp;P1;durP1;ratioP1;P2;durP2;ratioP2
23222;SDS011;11780;13.904;100.620;2024-03-23T00:56:22;20.17;;;16.20;;
23222;SDS011;11780;13.904;100.620;2024-03-23T00:58:50;19.67;;;16.02;;
23222;SDS011;11780;13.904;100.620;2024-03-23T01:01:18;24.38;;;16.48;;
23222;SDS011;11780;13.904;100.620;2024-03-23T01:03:45;20.27;;;16.23;;
23222;SDS011;11780;13.904;100.620;2024-03-23T01:06:13;20.00;;;16.27;;
23222;SDS011;11780;13.904;100.620;2024-03-23T01:08:41;22.40;;;17.30;;
23222;SDS011;11780;13.904;100.620;2024-03-23T01:11:09;24.20;;;17.35;;
23222;SDS011;11780;13.904;100.620;2024-03-23T01:13:36;19.20;;;16.73;;
23222;SDS011;11780;13.904;100.620;2024-03-23T01:16:04;23.23;;;17.02;;
23222;SDS011;11780;13.904;100.620;2024-03-23T01:18:33;21.45;;;17.35;;
23222;SDS011;11780;13.904;100.620;2024-03-23T01:21:01;20.58;;;16.58;;
23222;SDS011;11780;13.904;100.620;2024-03-23T01:23:29;18.75;;;16.80;;
23222;SDS011;11780;13.904;100.620;2024-03-23T01:25:57;19.75;;;17.05;;
23222;SDS011;11780;13.904;100.620;2024-03-23T01:28:24;20.50;;;17.73;;
23222;SDS011;11780;13.904;100.620;2024-03-23T01:30:52;19.85;;;16.15;;
23222;SDS011;11780;13.904;100.620;2024-03-23T01:33:20;19.27;;;17.15;;
23222;SDS011;11780;13.904;100.620;2024-03-23T01:35:47;20.65;;;17.52;;
23222;SDS011;11780;13.904;100.620;2024-03-23T01:38:15;21.45;;;17.25;;
23222;SDS011;11780;13.904;100.620;2024-03-23T01:40:43;20.83;;;17.77;;
23222;SDS011;11780;13.904;100.620;2024-03-23T01:43:10;23.77;;;17.92;;
23222;SDS011;11780;13.904;100.620;2024-03-23T01:45:38;22.02;;;16.60;;
23222;SDS011;11780;13.904;100.620;2024-03-23T01:48:06;19.92;;;17.52;;
23222;SDS011;11780;13.904;100.620;2024-03-23T01:50:35;20.90;;;17.77;;
23222;SDS011;11780;13.904;100.620;2024-03-23T01:53:03;21.80;;;17.60;;
23222;SDS011;11780;13.904;100.620;2024-03-23T01:55:33;20.77;;;16.75;;
23222;SDS011;11780;13.904;100.620;2024-03-23T01:58:04;22.33;;;17.52;;
23222;SDS011;11780;13.904;100.620;2024-03-23T02:00:32;19.52;;;17.42;;
23222;SDS011;11780;13.904;100.620;2024-03-23T02:03:00;20.25;;;17.60;;
23222;SDS011;11780;13.904;100.620;2024-03-23T02:05:28;21.95;;;17.08;;
23222;SDS011;11780;13.904;100.620;2024-03-23T02:07:56;22.38;;;17.23;;
23222;SDS011;11780;13.904;100.620;2024-03-23T02:10:24;22.20;;;18.00;;
23222;SDS011;11780;13.904;100.620;2024-03-23T02:12:51;21.30;;;17.65;;
23222;SDS011;11780;13.904;100.620;2024-03-23T02:15:19;20.27;;;18.00;;
23222;SDS011;11780;13.904;100.620;2024-03-23T02:17:47;20.88;;;18.00;;
23222;SDS011;11780;13.904;100.620;2024-03-23T02:20:14;22.50;;;19.23;;
23222;SDS011;11780;13.904;100.620;2024-03-23T02:22:42;23.77;;;18.75;;
23222;SDS011;11780;13.904;100.620;2024-03-23T02:25:10;23.65;;;19.05;;
23222;SDS011;11780;13.904;100.620;2024-03-23T02:27:37;23.40;;;19.38;;
23222;SDS011;11780;13.904;100.620;2024-03-23T02:30:07;25.27;;;19.92;;
23222;SDS011;11780;13.904;100.620;2024-03-23T02:32:35;22.98;;;19.77;;
23222;SDS011;11780;13.904;100.620;2024-03-23T02:35:02;21.90;;;19.52;;
23222;SDS011;11780;13.904;100.620;2024-03-23T02:37:31;23.10;;;19.88;;
23222;SDS011;11780;13.904;100.620;2024-03-23T02:39:59;23.08;;;20.38;;
23222;SDS011;11780;13.904;100.620;2024-03-23T02:42:26;22.88;;;20.48;;
23222;SDS011;11780;13.904;100.620;2024-03-23T02:44:54;24.45;;;21.10;;
23222;SDS011;11780;13.904;100.620;2024-03-23T02:47:22;22.88;;;20.48;;
23222;SDS011;11780;13.904;100.620;2024-03-23T02:49:49;22.45;;;20.25;;
23222;SDS011;11780;13.904;100.620;2024-03-23T02:52:17;23.35;;;20.52;;
23222;SDS011;11780;13.904;100.620;2024-03-23T02:54:45;23.42;;;21.20;;
23222;SDS011;11780;13.904;100.620;2024-03-23T02:57:12;23.38;;;21.00;;
23222;SDS011;11780;13.904;100.620;2024-03-23T02:59:40;24.92;;;21.70;;
23222;SDS011;11780;13.904;100.620;2024-03-23T03:02:08;24.20;;;20.92;;
23222;SDS011;11780;13.904;100.620;2024-03-23T03:04:36;23.55;;;21.00;;
23222;SDS011;11780;13.904;100.620;2024-03-23T03:07:04;24.15;;;21.42;;
23222;SDS011;11780;13.904;100.620;2024-03-23T03:09:31;25.50;;;21.48;;
23222;SDS011;11780;13.904;100.620;2024-03-23T03:12:01;24.63;;;22.00;;
23222;SDS011;11780;13.904;100.620;2024-03-23T03:14:30;25.00;;;22.30;;
23222;SDS011;11780;13.904;100.620;2024-03-23T03:16:57;25.08;;;21.92;;
23222;SDS011;11780;13.904;100.620;2024-03-23T03:19:25;34.75;;;24.38;;
23222;SDS011;11780;13.904;100.620;2024-03-23T03:21:53;26.73;;;23.77;;
23222;SDS011;11780;13.904;100.620;2024-03-23T03:24:21;26.30;;;23.70;;
23222;SDS011;11780;13.904;100.620;2024-03-23T03:26:49;26.73;;;24.23;;
23222;SDS011;11780;13.904;100.620;2024-03-23T03:29:17;27.63;;;24.83;;
23222;SDS011;11780;13.904;100.620;2024-03-23T03:31:44;28.10;;;25.10;;
23222;SDS011;11780;13.904;100.620;2024-03-23T03:34:12;27.42;;;24.17;;
23222;SDS011;11780;13.904;100.620;2024-03-23T03:36:40;28.33;;;25.35;;
23222;SDS011;11780;13.904;100.620;2024-03-23T03:39:08;27.20;;;24.55;;
23222;SDS011;11780;13.904;100.620;2024-03-23T03:41:36;25.80;;;23.00;;
23222;SDS011;11780;13.904;100.620;2024-03-23T03:44:04;24.75;;;22.25;;
23222;SDS011;11780;13.904;100.620;2024-03-23T03:46:32;25.63;;;22.90;;
23222;SDS011;11780;13.904;100.620;2024-03-23T03:48:59;27.02;;;24.20;;
23222;SDS011;11780;13.904;100.620;2024-03-23T03:51:27;27.02;;;23.88;;
23222;SDS011;11780;13.904;100.620;2024-03-23T03:53:55;25.25;;;22.70;;
23222;SDS011;11780;13.904;100.620;2024-03-23T03:56:22;31.20;;;22.67;;
23222;SDS011;11780;13.904;100.620;2024-03-23T03:58:50;34.38;;;23.55;;
23222;SDS011;11780;13.904;100.620;2024-03-23T04:01:18;36.10;;;23.77;;
23222;SDS011;11780;13.904;100.620;2024-03-23T04:03:45;31.33;;;24.48;;
23222;SDS011;11780;13.904;100.620;2024-03-23T04:06:18;52.28;;;33.67;;
23222;SDS011;11780;13.904;100.620;2024-03-23T04:08:46;52.78;;;34.50;;
23222;SDS011;11780;13.904;100.620;2024-03-23T04:11:14;38.15;;;29.52;;
23222;SDS011;11780;13.904;100.620;2024-03-23T04:13:42;33.25;;;27.48;;
23222;SDS011;11780;13.904;100.620;2024-03-23T04:16:10;30.55;;;25.33;;
23222;SDS011;11780;13.904;100.620;2024-03-23T04:18:38;28.92;;;25.85;;
23222;SDS011;11780;13.904;100.620;2024-03-23T04:21:05;27.73;;;24.30;;
23222;SDS011;11780;13.904;100.620;2024-03-23T04:23:34;28.42;;;25.42;;
23222;SDS011;11780;13.904;100.620;2024-03-23T04:26:03;27.60;;;24.70;;
23222;SDS011;11780;13.904;100.620;2024-03-23T04:28:31;27.95;;;25.23;;
23222;SDS011;11780;13.904;100.620;2024-03-23T04:31:03;26.88;;;24.08;;
23222;SDS011;11780;13.904;100.620;2024-03-23T04:33:31;28.95;;;25.05;;
23222;SDS011;11780;13.904;100.620;2024-03-23T04:35:59;25.85;;;23.13;;
23222;SDS011;11780;13.904;100.620;2024-03-23T04:38:27;24.45;;;22.00;;
23222;SDS011;11780;13.904;100.620;2024-03-23T04:40:58;26.63;;;23.77;;
23222;SDS011;11780;13.904;100.620;2024-03-23T04:43:26;23.95;;;21.40;;
23222;SDS011;11780;13.904;100.620;2024-03-23T04:45:54;25.55;;;22.42;;
23222;SDS011;11780;13.904;100.620;2024-03-23T04:48:22;25.02;;;22.42;;
23222;SDS011;11780;13.904;100.620;2024-03-23T04:50:54;23.73;;;21.38;;
23222;SDS011;11780;13.904;100.620;2024-03-23T04:53:25;25.42;;;22.83;;
23222;SDS011;11780;13.904;100.620;2024-03-23T04:55:56;26.77;;;23.57;;
23222;SDS011;11780;13.904;100.620;2024-03-23T04:58:25;24.73;;;22.10;;
23222;SDS011;11780;13.904;100.620;2024-03-23T05:00:54;24.92;;;22.35;;
23222;SDS011;11780;13.904;100.620;2024-03-23T05:03:22;24.40;;;21.73;;
23222;SDS011;11780;13.904;100.620;2024-03-23T05:05:50;25.45;;;22.65;;
23222;SDS011;11780;13.904;100.620;2024-03-23T05:08:18;24.40;;;21.05;;
23222;SDS011;11780;13.904;100.620;2024-03-23T05:10:46;24.83;;;22.42;;
23222;SDS011;11780;13.904;100.620;2024-03-23T05:13:14;24.42;;;21.83;;
23222;SDS011;11780;13.904;100.620;2024-03-23T05:15:42;26.35;;;23.50;;
23222;SDS011;11780;13.904;100.620;2024-03-23T05:18:09;23.80;;;21.40;;
23222;SDS011;11780;13.904;100.620;2024-03-23T05:20:38;26.05;;;23.45;;
23222;SDS011;11780;13.904;100.620;2024-03-23T05:23:06;23.77;;;21.33;;
23222;SDS011;11780;13.904;100.620;2024-03-23T05:25:33;25.45;;;22.95;;
23222;SDS011;11780;13.904;100.620;2024-03-23T05:28:01;27.77;;;24.77;;
23222;SDS011;11780;13.904;100.620;2024-03-23T05:30:29;34.47;;;27.17;;
23222;SDS011;11780;13.904;100.620;2024-03-23T05:32:57;33.08;;;26.20;;
23222;SDS011;11780;13.904;100.620;2024-03-23T06:49:43;25.48;;;22.83;;
23222;SDS011;11780;13.904;100.620;2024-03-23T06:52:12;24.48;;;21.92;;
23222;SDS011;11780;13.904;100.620;2024-03-23T06:54:39;26.33;;;23.23;;
23222;SDS011;11780;13.904;100.620;2024-03-23T06:57:07;25.85;;;23.15;;
23222;SDS011;11780;13.904;100.620;2024-03-23T06:59:35;25.23;;;21.58;;
23222;SDS011;11780;13.904;100.620;2024-03-23T07:02:03;25.33;;;22.63;;
23222;SDS011;11780;13.904;100.620;2024-03-23T07:04:30;24.83;;;22.10;;
23222;SDS011;11780;13.904;100.620;2024-03-23T07:06:58;24.33;;;21.90;;
23222;SDS011;11780;13.904;100.620;2024-03-23T07:09:26;23.95;;;20.83;;
23222;SDS011;11780;13.904;100.620;2024-03-23T07:11:58;27.65;;;22.85;;
23222;SDS011;11780;13.904;100.620;2024-03-23T07:14:26;25.30;;;22.35;;
23222;SDS011;11780;13.904;100.620;2024-03-23T07:16:53;25.85;;;23.10;;
23222;SDS011;11780;13.904;100.620;2024-03-23T07:19:21;26.38;;;20.60;;
23222;SDS011;11780;13.904;100.620;2024-03-23T07:21:50;23.35;;;20.98;;
23222;SDS011;11780;13.904;100.620;2024-03-23T07:24:17;23.05;;;20.55;;
23222;SDS011;11780;13.904;100.620;2024-03-23T07:26:45;25.50;;;21.27;;
23222;SDS011;11780;13.904;100.620;2024-03-23T07:29:14;22.25;;;19.95;;
23222;SDS011;11780;13.904;100.620;2024-03-23T07:31:41;24.60;;;21.88;;
23222;SDS011;11780;13.904;100.620;2024-03-23T07:34:09;24.83;;;22.08;;
23222;SDS011;11780;13.904;100.620;2024-03-23T07:36:37;23.02;;;20.15;;
23222;SDS011;11780;13.904;100.620;2024-03-23T07:39:05;23.60;;;21.30;;
23222;SDS011;11780;13.904;100.620;2024-03-23T07:41:32;24.55;;;21.73;;
23222;SDS011;11780;13.904;100.620;2024-03-23T07:44:02;25.98;;;21.33;;
23222;SDS011;11780;13.904;100.620;2024-03-23T07:46:29;24.83;;;22.27;;
23222;SDS011;11780;13.904;100.620;2024-03-23T07:48:57;24.77;;;22.17;;
23222;SDS011;11780;13.904;100.620;2024-03-23T07:51:25;24.23;;;21.35;;
23222;SDS011;11780;13.904;100.620;2024-03-23T07:53:53;24.48;;;22.05;;
23222;SDS011;11780;13.904;100.620;2024-03-23T07:56:21;25.33;;;22.05;;
23222;SDS011;11780;13.904;100.620;2024-03-23T07:58:50;30.42;;;21.63;;
23222;SDS011;11780;13.904;100.620;2024-03-23T08:01:17;25.83;;;22.30;;
23222;SDS011;11780;13.904;100.620;2024-03-23T08:03:45;24.83;;;21.73;;
23222;SDS011;11780;13.904;100.620;2024-03-23T08:06:14;23.05;;;20.67;;
23222;SDS011;11780;13.904;100.620;2024-03-23T08:08:42;22.60;;;19.88;;
23222;SDS011;11780;13.904;100.620;2024-03-23T08:11:14;24.17;;;21.70;;
23222;SDS011;11780;13.904;100.620;2024-03-23T08:13:42;23.73;;;21.25;;
23222;SDS011;11780;13.904;100.620;2024-03-23T08:16:12;22.15;;;19.88;;
23222;SDS011;11780;13.904;100.620;2024-03-23T08:18:40;24.88;;;20.48;;
23222;SDS011;11780;13.904;100.620;2024-03-23T08:21:08;24.73;;;20.75;;
23222;SDS011;11780;13.904;100.620;2024-03-23T08:23:36;24.17;;;20.40;;
23222;SDS011;11780;13.904;100.620;2024-03-23T08:26:05;22.30;;;19.92;;
23222;SDS011;11780;13.904;100.620;2024-03-23T08:28:37;22.55;;;20.05;;
23222;SDS011;11780;13.904;100.620;2024-03-23T08:31:06;23.58;;;21.20;;
23222;SDS011;11780;13.904;100.620;2024-03-23T08:33:35;23.23;;;20.67;;
23222;SDS011;11780;13.904;100.620;2024-03-23T08:36:07;23.77;;;20.48;;
23222;SDS011;11780;13.904;100.620;2024-03-23T08:38:36;23.25;;;19.73;;
23222;SDS011;11780;13.904;100.620;2024-03-23T08:41:05;23.70;;;20.60;;
23222;SDS011;11780;13.904;100.620;2024-03-23T08:43:40;23.20;;;20.67;;
23222;SDS011;11780;13.904;100.620;2024-03-23T08:46:09;24.33;;;20.40;;
23222;SDS011;11780;13.904;100.620;2024-03-23T08:48:42;21.35;;;19.13;;
23222;SDS011;11780;13.904;100.620;2024-03-23T08:51:16;25.90;;;20.33;;
23222;SDS011;11780;13.904;100.620;2024-03-23T08:53:45;22.33;;;19.92;;
23222;SDS011;11780;13.904;100.620;2024-03-23T08:56:13;24.10;;;20.08;;
23222;SDS011;11780;13.904;100.620;2024-03-23T08:58:41;21.95;;;19.73;;
23222;SDS011;11780;13.904;100.620;2024-03-23T09:01:10;22.55;;;20.15;;
23222;SDS011;11780;13.904;100.620;2024-03-23T09:06:08;22.05;;;19.52;;
23222;SDS011;11780;13.904;100.620;2024-03-23T09:08:40;22.33;;;19.63;;
23222;SDS011;11780;13.904;100.620;2024-03-23T09:11:11;21.85;;;19.40;;
23222;SDS011;11780;13.904;100.620;2024-03-23T09:13:40;21.90;;;19.70;;
23222;SDS011;11780;13.904;100.620;2024-03-23T09:16:11;22.40;;;20.05;;
23222;SDS011;11780;13.904;100.620;2024-03-23T09:18:39;22.08;;;19.77;;
23222;SDS011;11780;13.904;100.620;2024-03-23T09:21:11;22.73;;;19.90;;
23222;SDS011;11780;13.904;100.620;2024-03-23T09:23:43;24.08;;;19.80;;
23222;SDS011;11780;13.904;100.620;2024-03-23T09:26:12;22.25;;;19.65;;
23222;SDS011;11780;13.904;100.620;2024-03-23T09:28:40;21.63;;;19.33;;
23222;SDS011;11780;13.904;100.620;2024-03-23T09:31:08;22.88;;;20.63;;
23222;SDS011;11780;13.904;100.620;2024-03-23T09:33:41;21.88;;;19.40;;
23222;SDS011;11780;13.904;100.620;2024-03-23T09:36:09;27.27;;;19.88;;
23222;SDS011;11780;13.904;100.620;2024-03-23T09:38:37;24.73;;;19.55;;
23222;SDS011;11780;13.904;100.620;2024-03-23T09:41:10;23.23;;;19.30;;
23222;SDS011;11780;13.904;100.620;2024-03-23T09:43:39;22.33;;;18.73;;
23222;SDS011;11780;13.904;100.620;2024-03-23T09:46:06;24.35;;;18.17;;
23222;SDS011;11780;13.904;100.620;2024-03-23T09:48:35;23.67;;;19.45;;
23222;SDS011;11780;13.904;100.620;2024-03-23T09:51:03;25.45;;;18.88;;
23222;SDS011;11780;13.904;100.620;2024-03-23T09:53:31;19.70;;;17.60;;
23222;SDS011;11780;13.904;100.620;2024-03-23T09:55:59;23.95;;;18.27;;
23222;SDS011;11780;13.904;100.620;2024-03-23T09:58:27;23.00;;;17.80;;
23222;SDS011;11780;13.904;100.620;2024-03-23T10:00:55;20.33;;;17.20;;
23222;SDS011;11780;13.904;100.620;2024-03-23T10:03:23;19.50;;;16.42;;
23222;SDS011;11780;13.904;100.620;2024-03-23T10:06:01;20.00;;;16.70;;
23222;SDS011;11780;13.904;100.620;2024-03-23T10:08:29;18.45;;;15.13;;
23222;SDS011;11780;13.904;100.620;2024-03-23T10:10:58;22.30;;;15.85;;
23222;SDS011;11780;13.904;100.620;2024-03-23T10:16:08;21.02;;;15.00;;
23222;SDS011;11780;13.904;100.620;2024-03-23T10:18:37;18.02;;;14.75;;
23222;SDS011;11780;13.904;100.620;2024-03-23T10:23:34;19.30;;;13.60;;
23222;SDS011;11780;13.904;100.620;2024-03-23T10:31:38;20.75;;;15.40;;
23222;SDS011;11780;13.904;100.620;2024-03-23T10:34:08;21.02;;;14.50;;
23222;SDS011;11780;13.904;100.620;2024-03-23T10:36:35;21.52;;;15.55;;
23222;SDS011;11780;13.904;100.620;2024-03-23T10:39:08;18.33;;;15.07;;
23222;SDS011;11780;13.904;100.620;2024-03-23T10:41:36;21.77;;;15.27;;
23222;SDS011;11780;13.904;100.620;2024-03-23T10:44:04;20.75;;;16.55;;
23222;SDS011;11780;13.904;100.620;2024-03-23T10:46:33;22.48;;;15.77;;
23222;SDS011;11780;13.904;100.620;2024-03-23T10:49:01;18.10;;;15.77;;
23222;SDS011;11780;13.904;100.620;2024-03-23T10:51:29;22.27;;;16.80;;
23222;SDS011;11780;13.904;100.620;2024-03-23T10:53:57;21.98;;;16.70;;
23222;SDS011;11780;13.904;100.620;2024-03-23T10:56:27;21.25;;;16.85;;
23222;SDS011;11780;13.904;100.620;2024-03-23T10:59:00;19.05;;;16.58;;
23222;SDS011;11780;13.904;100.620;2024-03-23T11:01:31;21.27;;;16.95;;
23222;SDS011;11780;13.904;100.620;2024-03-23T11:03:59;25.25;;;18.80;;
23222;SDS011;11780;13.904;100.620;2024-03-23T11:06:34;27.83;;;19.10;;
23222;SDS011;11780;13.904;100.620;2024-03-23T11:12:17;84.18;;;38.25;;
23222;SDS011;11780;13.904;100.620;2024-03-23T11:17:31;34.55;;;21.23;;
23222;SDS011;11780;13.904;100.620;2024-03-23T11:19:59;29.80;;;17.92;;
23222;SDS011;11780;13.904;100.620;2024-03-23T11:25:14;24.08;;;16.90;;
23222;SDS011;11780;13.904;100.620;2024-03-23T11:27:48;26.73;;;17.77;;
23222;SDS011;11780;13.904;100.620;2024-03-23T11:30:21;24.58;;;15.45;;
23222;SDS011;11780;13.904;100.620;2024-03-23T11:32:53;20.45;;;15.98;;
23222;SDS011;11780;13.904;100.620;2024-03-23T11:35:28;20.52;;;16.67;;
23222;SDS011;11780;13.904;100.620;2024-03-23T11:38:04;23.92;;;16.85;;
23222;SDS011;11780;13.904;100.620;2024-03-23T11:40:46;22.27;;;15.65;;
23222;SDS011;11780;13.904;100.620;2024-03-23T11:43:18;21.83;;;15.13;;
23222;SDS011;11780;13.904;100.620;2024-03-23T11:45:49;22.85;;;17.20;;
23222;SDS011;11780;13.904;100.620;2024-03-23T11:48:22;24.55;;;16.65;;
23222;SDS011;11780;13.904;100.620;2024-03-23T11:50:53;25.13;;;17.25;;
23222;SDS011;11780;13.904;100.620;2024-03-23T11:53:24;23.35;;;16.30;;
23222;SDS011;11780;13.904;100.620;2024-03-23T11:55:59;24.25;;;16.20;;
23222;SDS011;11780;13.904;100.620;2024-03-23T11:58:31;24.75;;;16.30;;
23222;SDS011;11780;13.904;100.620;2024-03-23T12:01:03;21.10;;;16.58;;
23222;SDS011;11780;13.904;100.620;2024-03-23T12:03:32;21.42;;;16.17;;
23222;SDS011;11780;13.904;100.620;2024-03-23T12:06:03;22.67;;;15.27;;
23222;SDS011;11780;13.904;100.620;2024-03-23T12:08:32;21.50;;;14.27;;
23222;SDS011;11780;13.904;100.620;2024-03-23T12:11:08;24.35;;;16.67;;
23222;SDS011;11780;13.904;100.620;2024-03-23T12:13:42;21.30;;;15.38;;
23222;SDS011;11780;13.904;100.620;2024-03-23T12:16:14;22.90;;;15.02;;
23222;SDS011;11780;13.904;100.620;2024-03-23T12:18:42;21.48;;;15.45;;
23222;SDS011;11780;13.904;100.620;2024-03-23T12:21:15;18.95;;;14.88;;
23222;SDS011;11780;13.904;100.620;2024-03-23T12:24:02;22.20;;;15.02;;
23222;SDS011;11780;13.904;100.620;2024-03-23T12:26:30;20.27;;;14.82;;
23222;SDS011;11780;13.904;100.620;2024-03-23T12:28:58;21.15;;;14.18;;
23222;SDS011;11780;13.904;100.620;2024-03-23T12:31:26;19.63;;;14.93;;
23222;SDS011;11780;13.904;100.620;2024-03-23T12:33:54;20.67;;;14.70;;
23222;SDS011;11780;13.904;100.620;2024-03-23T12:36:22;21.98;;;14.10;;
23222;SDS011;11780;13.904;100.620;2024-03-23T12:38:49;22.35;;;13.88;;
23222;SDS011;11780;13.904;100.620;2024-03-23T12:41:17;19.13;;;14.98;;
23222;SDS011;11780;13.904;100.620;2024-03-23T12:43:45;20.77;;;14.23;;
23222;SDS011;11780;13.904;100.620;2024-03-23T12:46:13;21.75;;;13.82;;
23222;SDS011;11780;13.904;100.620;2024-03-23T12:48:41;18.52;;;14.05;;
23222;SDS011;11780;13.904;100.620;2024-03-23T12:51:11;20.37;;;13.53;;
23222;SDS011;11780;13.904;100.620;2024-03-23T12:53:39;22.70;;;13.82;;
23222;SDS011;11780;13.904;100.620;2024-03-23T12:56:07;19.90;;;13.68;;
23222;SDS011;11780;13.904;100.620;2024-03-23T12:58:39;21.95;;;14.18;;
23222;SDS011;11780;13.904;100.620;2024-03-23T13:01:08;18.42;;;13.57;;
23222;SDS011;11780;13.904;100.620;2024-03-23T13:03:36;19.83;;;13.70;;
23222;SDS011;11780;13.904;100.620;2024-03-23T13:06:03;20.08;;;13.85;;
23222;SDS011;11780;13.904;100.620;2024-03-23T13:08:34;18.05;;;12.43;;
23222;SDS011;11780;13.904;100.620;2024-03-23T13:11:03;21.70;;;14.23;;
23222;SDS011;11780;13.904;100.620;2024-03-23T13:13:31;19.40;;;13.35;;
23222;SDS011;11780;13.904;100.620;2024-03-23T13:16:00;19.95;;;13.05;;
23222;SDS011;11780;13.904;100.620;2024-03-23T13:18:31;20.27;;;13.85;;
23222;SDS011;11780;13.904;100.620;2024-03-23T13:20:59;21.23;;;14.55;;
23222;SDS011;11780;13.904;100.620;2024-03-23T13:23:28;18.73;;;13.10;;
23222;SDS011;11780;13.904;100.620;2024-03-23T13:25:57;20.80;;;13.50;;
23222;SDS011;11780;13.904;100.620;2024-03-23T13:28:25;19.88;;;13.32;;
23222;SDS011;11780;13.904;100.620;2024-03-23T13:30:54;20.77;;;13.75;;
23222;SDS011;11780;13.904;100.620;2024-03-23T13:33:24;20.08;;;13.45;;
23222;SDS011;11780;13.904;100.620;2024-03-23T13:35:54;20.92;;;14.13;;
23222;SDS011;11780;13.904;100.620;2024-03-23T13:38:26;26.45;;;15.60;;
23222;SDS011;11780;13.904;100.620;2024-03-23T13:43:26;19.92;;;13.38;;
23222;SDS011;11780;13.904;100.620;2024-03-23T13:46:03;18.45;;;14.00;;
23222;SDS011;11780;13.904;100.620;2024-03-23T13:48:43;22.17;;;14.75;;
23222;SDS011;11780;13.904;100.620;2024-03-23T13:51:11;22.15;;;14.60;;
23222;SDS011;11780;13.904;100.620;2024-03-23T13:53:40;21.20;;;14.32;;
23222;SDS011;11780;13.904;100.620;2024-03-23T13:56:09;22.48;;;14.00;;
23222;SDS011;11780;13.904;100.620;2024-03-23T13:58:36;16.80;;;14.10;;
23222;SDS011;11780;13.904;100.620;2024-03-23T14:01:06;21.38;;;14.27;;
23222;SDS011;11780;13.904;100.620;2024-03-23T14:03:34;17.13;;;13.43;;
23222;SDS011;11780;13.904;100.620;2024-03-23T14:06:02;18.38;;;14.63;;
23222;SDS011;11780;13.904;100.620;2024-03-23T14:08:31;20.75;;;15.07;;
23222;SDS011;11780;13.904;100.620;2024-03-23T14:11:08;20.38;;;14.32;;
23222;SDS011;11780;13.904;100.620;2024-03-23T14:13:36;21.55;;;13.85;;
23222;SDS011;11780;13.904;100.620;2024-03-23T14:16:05;25.85;;;13.98;;
23222;SDS011;11780;13.904;100.620;2024-03-23T14:18:34;19.05;;;14.05;;
23222;SDS011;11780;13.904;100.620;2024-03-23T14:21:01;18.98;;;14.10;;
23222;SDS011;11780;13.904;100.620;2024-03-23T14:23:30;18.52;;;12.98;;
23222;SDS011;11780;13.904;100.620;2024-03-23T14:26:01;16.45;;;12.75;;
23222;SDS011;11780;13.904;100.620;2024-03-23T14:28:30;20.77;;;13.77;;
23222;SDS011;11780;13.904;100.620;2024-03-23T14:30:58;19.48;;;13.05;;
23222;SDS011;11780;13.904;100.620;2024-03-23T14:33:27;19.80;;;13.93;;
23222;SDS011;11780;13.904;100.620;2024-03-23T14:37:38;21.13;;;14.65;;
23222;SDS011;11780;13.904;100.620;2024-03-23T14:40:09;23.05;;;14.10;;
23222;SDS011;11780;13.904;100.620;2024-03-23T14:42:39;16.05;;;14.10;;
23222;SDS011;11780;13.904;100.620;2024-03-23T14:45:08;18.08;;;13.90;;
23222;SDS011;11780;13.904;100.620;2024-03-23T14:47:36;19.50;;;14.32;;
23222;SDS011;11780;13.904;100.620;2024-03-23T14:50:04;20.42;;;13.95;;
23222;SDS011;11780;13.904;100.620;2024-03-23T14:52:35;18.17;;;13.75;;
23222;SDS011;11780;13.904;100.620;2024-03-23T14:55:03;20.05;;;13.23;;
23222;SDS011;11780;13.904;100.620;2024-03-23T14:57:34;19.45;;;14.18;;
23222;SDS011;11780;13.904;100.620;2024-03-23T15:00:08;18.30;;;13.82;;
23222;SDS011;11780;13.904;100.620;2024-03-23T15:02:40;18.33;;;13.88;;
23222;SDS011;11780;13.904;100.620;2024-03-23T15:05:09;16.35;;;13.35;;
23222;SDS011;11780;13.904;100.620;2024-03-23T15:07:37;20.67;;;14.18;;
23222;SDS011;11780;13.904;100.620;2024-03-23T15:10:05;17.80;;;13.77;;
23222;SDS011;11780;13.904;100.620;2024-03-23T15:12:35;21.10;;;13.53;;
23222;SDS011;11780;13.904;100.620;2024-03-23T15:15:03;19.40;;;14.25;;
23222;SDS011;11780;13.904;100.620;2024-03-23T15:17:31;18.20;;;13.57;;
23222;SDS011;11780;13.904;100.620;2024-03-23T15:20:01;17.33;;;13.82;;
23222;SDS011;11780;13.904;100.620;2024-03-23T15:22:29;17.58;;;13.25;;
23222;SDS011;11780;13.904;100.620;2024-03-23T15:24:58;26.40;;;14.10;;
23222;SDS011;11780;13.904;100.620;2024-03-23T15:27:26;20.98;;;14.10;;
23222;SDS011;11780;13.904;100.620;2024-03-23T15:29:58;22.40;;;14.10;;
23222;SDS011;11780;13.904;100.620;2024-03-23T15:32:27;17.23;;;13.43;;
23222;SDS011;11780;13.904;100.620;2024-03-23T15:34:55;17.45;;;13.65;;
23222;SDS011;11780;13.904;100.620;2024-03-23T15:37:23;19.75;;;13.93;;
23222;SDS011;11780;13.904;100.620;2024-03-23T15:39:52;16.17;;;13.30;;
23222;SDS011;11780;13.904;100.620;2024-03-23T15:42:22;19.25;;;13.73;;
23222;SDS011;11780;13.904;100.620;2024-03-23T15:44:49;19.30;;;13.90;;
23222;SDS011;11780;13.904;100.620;2024-03-23T15:47:17;17.13;;;13.13;;
23222;SDS011;11780;13.904;100.620;2024-03-23T15:49:47;19.20;;;13.90;;
23222;SDS011;11780;13.904;100.620;2024-03-23T15:52:16;16.98;;;13.13;;
23222;SDS011;11780;13.904;100.620;2024-03-23T15:54:44;15.55;;;12.18;;
23222;SDS011;11780;13.904;100.620;2024-03-23T15:57:13;21.35;;;13.07;;
23222;SDS011;11780;13.904;100.620;2024-03-23T15:59:42;14.63;;;12.10;;
23222;SDS011;11780;13.904;100.620;2024-03-23T16:02:11;16.10;;;12.10;;
23222;SDS011;11780;13.904;100.620;2024-03-23T16:04:38;14.07;;;11.75;;
23222;SDS011;11780;13.904;100.620;2024-03-23T16:07:07;14.85;;;12.02;;
23222;SDS011;11780;13.904;100.620;2024-03-23T16:09:36;14.00;;;12.15;;
23222;SDS011;11780;13.904;100.620;2024-03-23T16:12:04;13.30;;;11.82;;
23222;SDS011;11780;13.904;100.620;2024-03-23T16:14:36;13.63;;;11.70;;
23222;SDS011;11780;13.904;100.620;2024-03-23T16:17:06;16.92;;;12.20;;
23222;SDS011;11780;13.904;100.620;2024-03-23T16:19:34;15.05;;;12.98;;
23222;SDS011;11780;13.904;100.620;2024-03-23T16:22:05;14.35;;;12.05;;
23222;SDS011;11780;13.904;100.620;2024-03-23T16:24:42;15.75;;;11.75;;
23222;SDS011;11780;13.904;100.620;2024-03-23T16:27:17;14.85;;;11.95;;
23222;SDS011;11780;13.904;100.620;2024-03-23T16:29:45;14.77;;;12.55;;
23222;SDS011;11780;13.904;100.620;2024-03-23T16:32:15;15.65;;;11.98;;
23222;SDS011;11780;13.904;100.620;2024-03-23T16:34:47;18.15;;;12.50;;
23222;SDS011;11780;13.904;100.620;2024-03-23T16:37:15;17.23;;;12.75;;
23222;SDS011;11780;13.904;100.620;2024-03-23T16:39:43;14.88;;;13.00;;
23222;SDS011;11780;13.904;100.620;2024-03-23T16:42:11;20.88;;;13.48;;